Altura, MN

7:05 PM CDT on July 20, 2017 (GMT -0500)
| | Change Station

Elev -9999 ft 0.00 °N, 0.00 °E | Updated 6 minutes ago

Partly Cloudy
Partly Cloudy
°F
Feels Like °F
N
Wind Variable Wind from North
Gusts mph

Today
High -- | Low -- °F
--% Chance of Precip.
Yesterday
High -- | Low -- °F
Precip. -- in
Pressure 29.98 in
Visibility 10.0 miles
Clouds Clear
Dew Point Not available.
Humidity Not available.
Rainfall --
Snow Depth Not available.
5:43 AM 8:44 PM
Waning Crescent, 8% visible
METAR KONA 202352Z AUTO 31004KT 10SM CLR 27/21 A2998 RMK AO2
Pressure 29.98 in
Visibility 10.0 miles
Clouds Clear
Dew Point Not available.
Humidity Not available.
Rainfall --
Snow Depth Not available.
5:43 AM 8:44 PM
Waning Crescent, 8% visible
METAR KONA 202352Z AUTO 31004KT 10SM CLR 27/21 A2998 RMK AO2

Get Your Daily Forecast Email!

Thanks for signing up!

Be on the lookout for a verification email in your inbox.

You'll start receiving severe weather alerts in your inbox..

×

10-Day Weather Forecast

Almanac

Astronomy

Jul. 20, 2017 Rise Set
Actual Time
Civil Twilight
Nautical Twilight
Astronomical Twilight
Moon
Length of Visible Light
Length of Day
Tomorrow will be .
, % of the Moon is Illuminated

Today's Extremes

State Highs State Lows

Community

WunderPhotos

Category 6

Welcome to Category 6. This is the collective home for Weather Underground's featured writeups by Dr. Jeff Masters (right), Bob Henson (left), Chris Burt, and other regular contributors.

Nearby

Air Quality

  Air Quality AQ Index Pollutant
Not available.

Snow Depth

Station Depth Elevation

Earthquake Activity

City Distance Mag. Time & Date
Minimum magnitude displayed is 2.5.

Coastal Water Temperatures

Place Temperature

Stations

Nearby Weather Stations

Station Location Temp. Windchill Dew Point Humidity Wind Precip. Elev Updated Type
                   

Watches & Warnings

Flash Flood Watch
Issued: 3:47 PM CDT Jul. 20, 2017 – National Weather Service

... Flash Flood Watch remains in effect from Friday afternoon
through Saturday morning...

The Flash Flood Watch continues for

* portions of northeast Iowa, southeast Minnesota, and Wisconsin,
including the following counties, in northeast Iowa, Allamakee,
Clayton, Howard, and Winneshiek. In southeast Minnesota, Dodge,
Fillmore, Houston, Mower, Olmsted, Wabasha, and Winona. In
Wisconsin, Adams, Buffalo, Crawford, Grant, Jackson, Juneau, La
Crosse, Monroe, Richland, Trempealeau, and Vernon.

* From Friday afternoon through Saturday morning

* heavy rainfall of 1 to 3 inches with locally higher amounts
possible.

* Impacts could include flash flooding, additional Road
washouts, rock and mud slides, and river flooding.

Precautionary/preparedness actions...

A Flash Flood Watch means that conditions may develop that lead
to flash flooding. Flash flooding is a very dangerous situation.

You should monitor later forecasts and be prepared to take action
should flash flood warnings be issued.


Rrs